Terminal Aerodrome Forecast
Issued by NWS Pocatello, ID

Home | Current Version | Previous Version | Text Only | Print | Product List | Glossary On
Versions: 1 2 3 4 5 6 7 8 9 10 11 12 13 14 15 16 17 18 19 20 21
000
FTUS45 KPIH 161315 AAA
TAFBYI
TAF AMD
KBYI 161315Z 1613/1712 27010G15KT 6SM -SHSN BR OVC005
     FM161800 28010G15KT P6SM VCSH SCT008 BKN025 OVC060
     FM170000 27006KT P6SM SCT008 OVC015=

USA.gov is the U.S. government's official web portal to all federal, state and local government web resources and services.